sensor_id;sensor_type;location;lat;lon;timestamp;pressure;altitude;pressure_sealevel;temperature;humidity
12471;BME280;36499;46.484;13.832;2024-03-08T00:02:19;93052.03;;;1.09;100.00
12471;BME280;36499;46.484;13.832;2024-03-08T00:04:46;93058.03;;;0.98;100.00
12471;BME280;36499;46.484;13.832;2024-03-08T00:07:12;93061.28;;;1.00;100.00
12471;BME280;36499;46.484;13.832;2024-03-08T00:09:40;93059.03;;;1.07;100.00
12471;BME280;36499;46.484;13.832;2024-03-08T00:12:08;93049.84;;;0.95;100.00
12471;BME280;36499;46.484;13.832;2024-03-08T00:14:35;93047.06;;;1.07;100.00
12471;BME280;36499;46.484;13.832;2024-03-08T00:17:04;93052.66;;;0.92;100.00
12471;BME280;36499;46.484;13.832;2024-03-08T00:19:31;93052.13;;;0.98;100.00
12471;BME280;36499;46.484;13.832;2024-03-08T00:21:58;93054.50;;;0.89;100.00
12471;BME280;36499;46.484;13.832;2024-03-08T00:24:24;93054.94;;;0.95;100.00
12471;BME280;36499;46.484;13.832;2024-03-08T00:26:51;93054.94;;;0.95;100.00
12471;BME280;36499;46.484;13.832;2024-03-08T00:29:21;93049.84;;;0.95;100.00
12471;BME280;36499;46.484;13.832;2024-03-08T00:31:47;93054.25;;;0.93;100.00
12471;BME280;36499;46.484;13.832;2024-03-08T00:34:14;93047.78;;;0.88;100.00
12471;BME280;36499;46.484;13.832;2024-03-08T00:36:41;93049.97;;;0.93;100.00
12471;BME280;36499;46.484;13.832;2024-03-08T00:39:09;93049.31;;;1.01;100.00
12471;BME280;36499;46.484;13.832;2024-03-08T00:41:37;93045.13;;;1.00;100.00
12471;BME280;36499;46.484;13.832;2024-03-08T00:44:04;93047.91;;;0.87;100.00
12471;BME280;36499;46.484;13.832;2024-03-08T00:46:32;93046.47;;;0.94;100.00
12471;BME280;36499;46.484;13.832;2024-03-08T00:48:59;93038.28;;;0.79;100.00
12471;BME280;36499;46.484;13.832;2024-03-08T00:51:26;93038.22;;;0.91;100.00
12471;BME280;36499;46.484;13.832;2024-03-08T00:53:53;93039.34;;;0.77;100.00
12471;BME280;36499;46.484;13.832;2024-03-08T00:56:20;93037.97;;;0.52;100.00
12471;BME280;36499;46.484;13.832;2024-03-08T00:58:47;93042.97;;;0.53;100.00
12471;BME280;36499;46.484;13.832;2024-03-08T01:01:13;93043.03;;;0.63;100.00
12471;BME280;36499;46.484;13.832;2024-03-08T01:03:44;93041.22;;;0.54;100.00
12471;BME280;36499;46.484;13.832;2024-03-08T01:06:11;93033.59;;;0.64;100.00
12471;BME280;36499;46.484;13.832;2024-03-08T01:08:38;93036.09;;;0.75;100.00
12471;BME280;36499;46.484;13.832;2024-03-08T01:11:07;93035.97;;;0.76;100.00
12471;BME280;36499;46.484;13.832;2024-03-08T01:13:34;93042.16;;;0.74;100.00
12471;BME280;36499;46.484;13.832;2024-03-08T01:16:01;93031.97;;;0.63;100.00
12471;BME280;36499;46.484;13.832;2024-03-08T01:18:29;93021.13;;;0.70;100.00
12471;BME280;36499;46.484;13.832;2024-03-08T01:20:57;93019.19;;;0.63;100.00
12471;BME280;36499;46.484;13.832;2024-03-08T01:23:24;93019.63;;;0.68;100.00
12471;BME280;36499;46.484;13.832;2024-03-08T01:25:51;93014.53;;;0.68;100.00
12471;BME280;36499;46.484;13.832;2024-03-08T01:28:22;93013.22;;;0.73;100.00
12471;BME280;36499;46.484;13.832;2024-03-08T01:30:49;93009.03;;;0.72;100.00
12471;BME280;36499;46.484;13.832;2024-03-08T01:33:21;93003.72;;;0.64;100.00
12471;BME280;36499;46.484;13.832;2024-03-08T01:35:48;93006.59;;;0.71;100.00
12471;BME280;36499;46.484;13.832;2024-03-08T01:38:16;93008.91;;;0.74;100.00
12471;BME280;36499;46.484;13.832;2024-03-08T01:40:43;93015.16;;;0.60;100.00
12471;BME280;36499;46.484;13.832;2024-03-08T01:43:18;93001.56;;;0.60;100.00
12471;BME280;36499;46.484;13.832;2024-03-08T01:45:45;93006.13;;;0.56;100.00
12471;BME280;36499;46.484;13.832;2024-03-08T01:48:12;93002.75;;;0.55;100.00
12471;BME280;36499;46.484;13.832;2024-03-08T01:50:40;93002.25;;;0.62;100.00
12471;BME280;36499;46.484;13.832;2024-03-08T01:53:08;92998.34;;;0.58;100.00
12471;BME280;36499;46.484;13.832;2024-03-08T01:55:38;93003.19;;;0.61;100.00
12471;BME280;36499;46.484;13.832;2024-03-08T01:58:06;92996.34;;;0.61;100.00
12471;BME280;36499;46.484;13.832;2024-03-08T02:00:34;92996.97;;;0.53;100.00
12471;BME280;36499;46.484;13.832;2024-03-08T02:03:02;92995.22;;;0.54;100.00
12471;BME280;36499;46.484;13.832;2024-03-08T02:05:29;92993.22;;;0.58;100.00
12471;BME280;36499;46.484;13.832;2024-03-08T02:07:56;93000.25;;;0.65;100.00
12471;BME280;36499;46.484;13.832;2024-03-08T02:10:23;92990.81;;;0.66;100.00
12471;BME280;36499;46.484;13.832;2024-03-08T02:12:52;92984.66;;;0.68;100.00
12471;BME280;36499;46.484;13.832;2024-03-08T02:15:19;92995.22;;;0.54;100.00
12471;BME280;36499;46.484;13.832;2024-03-08T02:17:47;92987.19;;;0.68;100.00
12471;BME280;36499;46.484;13.832;2024-03-08T02:20:14;92984.06;;;0.55;100.00
12471;BME280;36499;46.484;13.832;2024-03-08T02:22:43;92980.19;;;0.61;100.00
12471;BME280;36499;46.484;13.832;2024-03-08T02:25:10;92980.81;;;0.53;100.00
12471;BME280;36499;46.484;13.832;2024-03-08T02:27:38;92976.69;;;0.41;100.00
12471;BME280;36499;46.484;13.832;2024-03-08T02:30:05;92982.31;;;0.55;100.00
12471;BME280;36499;46.484;13.832;2024-03-08T02:32:32;92980.84;;;0.63;100.00
12471;BME280;36499;46.484;13.832;2024-03-08T02:34:59;92980.31;;;0.59;100.00
12471;BME280;36499;46.484;13.832;2024-03-08T02:37:26;92975.22;;;0.69;100.00
12471;BME280;36499;46.484;13.832;2024-03-08T02:39:55;92978.66;;;0.79;100.00
12471;BME280;36499;46.484;13.832;2024-03-08T02:42:22;92980.59;;;0.86;100.00
12471;BME280;36499;46.484;13.832;2024-03-08T02:44:49;92971.22;;;0.76;100.00
12471;BME280;36499;46.484;13.832;2024-03-08T02:47:16;92969.88;;;0.72;100.00
12471;BME280;36499;46.484;13.832;2024-03-08T02:49:43;92965.19;;;0.77;100.00
12471;BME280;36499;46.484;13.832;2024-03-08T02:52:10;92972.97;;;0.75;100.00
12471;BME280;36499;46.484;13.832;2024-03-08T02:54:37;92973.59;;;0.68;100.00
12471;BME280;36499;46.484;13.832;2024-03-08T02:57:05;92973.09;;;0.74;100.00
12471;BME280;36499;46.484;13.832;2024-03-08T02:59:33;92974.84;;;0.73;100.00
12471;BME280;36499;46.484;13.832;2024-03-08T03:02:01;92963.88;;;0.82;100.00
12471;BME280;36499;46.484;13.832;2024-03-08T03:04:28;92976.47;;;0.95;100.00
12471;BME280;36499;46.484;13.832;2024-03-08T03:06:54;92978.72;;;0.98;100.00
12471;BME280;36499;46.484;13.832;2024-03-08T03:09:21;92978.84;;;0.87;100.00
12471;BME280;36499;46.484;13.832;2024-03-08T03:11:53;92977.22;;;0.86;100.00
12471;BME280;36499;46.484;13.832;2024-03-08T03:14:21;92973.41;;;0.80;100.00
12471;BME280;36499;46.484;13.832;2024-03-08T03:16:48;92967.06;;;0.75;100.00
12471;BME280;36499;46.484;13.832;2024-03-08T03:19:15;92973.91;;;0.74;100.00
12471;BME280;36499;46.484;13.832;2024-03-08T03:21:42;92969.72;;;0.94;100.00
12471;BME280;36499;46.484;13.832;2024-03-08T03:24:09;92979.41;;;0.91;100.00
12471;BME280;36499;46.484;13.832;2024-03-08T03:26:37;92972.41;;;1.02;100.00
12471;BME280;36499;46.484;13.832;2024-03-08T03:29:06;92974.03;;;0.94;100.00
12471;BME280;36499;46.484;13.832;2024-03-08T03:31:35;92980.75;;;0.95;100.00
12471;BME280;36499;46.484;13.832;2024-03-08T03:34:02;92975.53;;;0.96;100.00
12471;BME280;36499;46.484;13.832;2024-03-08T03:36:30;92973.22;;;0.93;100.00
12471;BME280;36499;46.484;13.832;2024-03-08T03:38:57;92968.59;;;0.87;100.00
12471;BME280;36499;46.484;13.832;2024-03-08T03:41:35;92975.09;;;0.91;100.00
12471;BME280;36499;46.484;13.832;2024-03-08T03:44:02;92968.59;;;0.87;100.00
12471;BME280;36499;46.484;13.832;2024-03-08T03:46:29;92971.34;;;0.74;100.00
12471;BME280;36499;46.484;13.832;2024-03-08T03:48:57;92961.94;;;0.75;100.00
12471;BME280;36499;46.484;13.832;2024-03-08T03:51:25;92975.41;;;0.77;100.00
12471;BME280;36499;46.484;13.832;2024-03-08T03:53:52;92977.34;;;0.84;100.00
12471;BME280;36499;46.484;13.832;2024-03-08T03:56:19;92979.53;;;0.68;100.00
12471;BME280;36499;46.484;13.832;2024-03-08T03:58:46;92979.97;;;0.73;100.00
12471;BME280;36499;46.484;13.832;2024-03-08T04:01:13;92981.53;;;0.85;100.00
12471;BME280;36499;46.484;13.832;2024-03-08T04:03:41;92976.97;;;0.89;100.00
12471;BME280;36499;46.484;13.832;2024-03-08T04:06:10;92978.59;;;0.90;100.00
12471;BME280;36499;46.484;13.832;2024-03-08T04:08:37;92979.28;;;0.92;100.00
12471;BME280;36499;46.484;13.832;2024-03-08T04:11:04;92979.81;;;0.96;100.00
12471;BME280;36499;46.484;13.832;2024-03-08T04:13:30;92977.34;;;0.84;100.00
12471;BME280;36499;46.484;13.832;2024-03-08T04:15:58;92973.09;;;0.74;100.00
12471;BME280;36499;46.484;13.832;2024-03-08T04:18:25;92959.38;;;0.75;100.00
12471;BME280;36499;46.484;13.832;2024-03-08T04:20:52;92958.31;;;0.77;100.00
12471;BME280;36499;46.484;13.832;2024-03-08T04:23:20;92963.19;;;0.80;100.00
12471;BME280;36499;46.484;13.832;2024-03-08T04:25:47;92964.69;;;0.83;100.00
12471;BME280;36499;46.484;13.832;2024-03-08T04:28:14;92961.88;;;0.86;100.00
12471;BME280;36499;46.484;13.832;2024-03-08T04:30:42;92956.63;;;0.87;100.00
12471;BME280;36499;46.484;13.832;2024-03-08T04:33:09;92955.25;;;0.83;100.00
12471;BME280;36499;46.484;13.832;2024-03-08T04:35:36;92953.25;;;0.87;100.00
12471;BME280;36499;46.484;13.832;2024-03-08T04:38:03;92955.13;;;0.85;100.00
12471;BME280;36499;46.484;13.832;2024-03-08T04:40:32;92963.09;;;0.92;100.00
12471;BME280;36499;46.484;13.832;2024-03-08T04:42:59;92953.47;;;0.74;100.00
12471;BME280;36499;46.484;13.832;2024-03-08T04:45:26;92960.00;;;0.98;100.00
12471;BME280;36499;46.484;13.832;2024-03-08T04:47:53;92964.44;;;0.86;100.00
12471;BME280;36499;46.484;13.832;2024-03-08T04:50:20;92971.97;;;0.87;100.00
12471;BME280;36499;46.484;13.832;2024-03-08T04:52:47;92963.09;;;0.92;100.00
12471;BME280;36499;46.484;13.832;2024-03-08T04:55:14;92959.31;;;0.86;100.00
12471;BME280;36499;46.484;13.832;2024-03-08T04:57:42;92957.56;;;0.86;100.00
12471;BME280;36499;46.484;13.832;2024-03-08T05:00:10;92960.25;;;0.64;100.00
12471;BME280;36499;46.484;13.832;2024-03-08T05:02:37;92957.19;;;0.70;100.00
12471;BME280;36499;46.484;13.832;2024-03-08T05:05:05;92962.44;;;0.69;100.00
12471;BME280;36499;46.484;13.832;2024-03-08T05:07:32;92958.38;;;0.66;100.00
12471;BME280;36499;46.484;13.832;2024-03-08T05:10:00;92963.22;;;0.60;100.00
12471;BME280;36499;46.484;13.832;2024-03-08T05:12:28;92961.28;;;0.52;100.00
12471;BME280;36499;46.484;13.832;2024-03-08T05:14:56;92960.84;;;0.47;100.00
12471;BME280;36499;46.484;13.832;2024-03-08T05:17:23;92964.59;;;0.43;100.00
12471;BME280;36499;46.484;13.832;2024-03-08T05:19:49;92962.72;;;0.45;100.00
12471;BME280;36499;46.484;13.832;2024-03-08T05:22:16;92966.16;;;0.55;100.00
12471;BME280;36499;46.484;13.832;2024-03-08T05:24:44;92966.53;;;0.50;100.00
12471;BME280;36499;46.484;13.832;2024-03-08T05:27:11;92974.44;;;0.47;100.00
12471;BME280;36499;46.484;13.832;2024-03-08T05:29:38;92974.69;;;0.44;100.00
12471;BME280;36499;46.484;13.832;2024-03-08T05:32:07;92974.63;;;0.55;100.00
12471;BME280;36499;46.484;13.832;2024-03-08T05:34:35;92984.88;;;0.55;100.00
12471;BME280;36499;46.484;13.832;2024-03-08T05:37:02;92983.72;;;0.69;100.00
12471;BME280;36499;46.484;13.832;2024-03-08T05:39:29;92981.41;;;0.66;100.00
12471;BME280;36499;46.484;13.832;2024-03-08T05:41:56;92984.66;;;0.68;100.00
12471;BME280;36499;46.484;13.832;2024-03-08T05:44:23;92989.88;;;0.67;100.00
12471;BME280;36499;46.484;13.832;2024-03-08T05:46:49;92988.38;;;0.64;100.00
12471;BME280;36499;46.484;13.832;2024-03-08T05:49:18;92991.63;;;0.66;100.00
12471;BME280;36499;46.484;13.832;2024-03-08T05:51:45;92990.56;;;0.69;100.00
12471;BME280;36499;46.484;13.832;2024-03-08T05:54:13;92997.56;;;0.67;100.00
12471;BME280;36499;46.484;13.832;2024-03-08T05:56:40;92997.28;;;0.60;100.00
12471;BME280;36499;46.484;13.832;2024-03-08T05:59:09;92999.19;;;0.68;100.00
12471;BME280;36499;46.484;13.832;2024-03-08T06:01:36;93005.22;;;0.67;100.00
12471;BME280;36499;46.484;13.832;2024-03-08T06:04:03;92996.94;;;0.74;100.00
12471;BME280;36499;46.484;13.832;2024-03-08T06:06:32;92993.00;;;0.70;100.00
12471;BME280;36499;46.484;13.832;2024-03-08T06:08:59;92992.19;;;0.70;100.00
12471;BME280;36499;46.484;13.832;2024-03-08T06:11:26;93004.09;;;0.80;100.00
12471;BME280;36499;46.484;13.832;2024-03-08T06:13:53;93007.38;;;0.62;100.00
12471;BME280;36499;46.484;13.832;2024-03-08T06:16:25;93000.56;;;0.51;100.00
12471;BME280;36499;46.484;13.832;2024-03-08T06:18:55;92996.41;;;0.50;100.00
12471;BME280;36499;46.484;13.832;2024-03-08T06:21:22;92990.78;;;0.56;100.00
12471;BME280;36499;46.484;13.832;2024-03-08T06:23:53;92995.78;;;0.58;100.00
12471;BME280;36499;46.484;13.832;2024-03-08T06:26:23;92997.81;;;0.43;100.00
12471;BME280;36499;46.484;13.832;2024-03-08T06:28:50;92992.97;;;0.40;100.00
12471;BME280;36499;46.484;13.832;2024-03-08T06:31:17;92996.19;;;0.42;100.00
12471;BME280;36499;46.484;13.832;2024-03-08T06:33:45;93001.06;;;0.45;100.00
12471;BME280;36499;46.484;13.832;2024-03-08T06:36:12;92998.75;;;0.42;100.00
12471;BME280;36499;46.484;13.832;2024-03-08T06:38:40;92998.75;;;0.42;100.00
12471;BME280;36499;46.484;13.832;2024-03-08T06:41:09;93013.72;;;0.46;100.00
12471;BME280;36499;46.484;13.832;2024-03-08T06:43:41;93008.22;;;0.93;100.00
12471;BME280;36499;46.484;13.832;2024-03-08T06:46:08;93007.34;;;1.13;100.00
12471;BME280;36499;46.484;13.832;2024-03-08T06:48:35;93016.16;;;1.20;100.00
12471;BME280;36499;46.484;13.832;2024-03-08T06:51:03;93016.56;;;1.25;100.00
12471;BME280;36499;46.484;13.832;2024-03-08T06:53:30;93018.50;;;1.42;100.00
12471;BME280;36499;46.484;13.832;2024-03-08T06:55:57;93015.69;;;1.45;100.00
12471;BME280;36499;46.484;13.832;2024-03-08T06:58:25;93027.72;;;1.54;100.00
12471;BME280;36499;46.484;13.832;2024-03-08T07:00:53;93025.72;;;1.58;100.00
12471;BME280;36499;46.484;13.832;2024-03-08T07:03:23;93025.81;;;1.47;100.00
12471;BME280;36499;46.484;13.832;2024-03-08T07:05:52;93025.28;;;1.53;100.00
12471;BME280;36499;46.484;13.832;2024-03-08T07:08:19;93024.06;;;1.47;100.00
12471;BME280;36499;46.484;13.832;2024-03-08T07:10:47;93023.31;;;1.36;100.00
12471;BME280;36499;46.484;13.832;2024-03-08T07:13:15;93024.75;;;1.19;100.00
12471;BME280;36499;46.484;13.832;2024-03-08T07:15:43;93028.22;;;1.08;100.00
12471;BME280;36499;46.484;13.832;2024-03-08T07:18:11;93025.34;;;1.02;100.00
12471;BME280;36499;46.484;13.832;2024-03-08T07:20:40;93038.09;;;0.92;100.00
12471;BME280;36499;46.484;13.832;2024-03-08T07:23:07;93026.50;;;0.88;100.00
12471;BME280;36499;46.484;13.832;2024-03-08T07:25:36;93026.69;;;0.96;100.00
12471;BME280;36499;46.484;13.832;2024-03-08T07:28:04;93036.22;;;0.94;100.00
12471;BME280;36499;46.484;13.832;2024-03-08T07:30:33;93027.25;;;0.79;100.00
12471;BME280;36499;46.484;13.832;2024-03-08T07:33:18;93024.19;;;0.85;100.00
12471;BME280;36499;46.484;13.832;2024-03-08T07:35:45;93026.25;;;0.91;100.00
12471;BME280;36499;46.484;13.832;2024-03-08T07:38:12;93029.44;;;0.83;100.00
12471;BME280;36499;46.484;13.832;2024-03-08T07:40:40;93028.38;;;0.86;100.00
12471;BME280;36499;46.484;13.832;2024-03-08T07:43:10;93030.00;;;0.87;100.00
12471;BME280;36499;46.484;13.832;2024-03-08T07:45:37;93029.63;;;0.92;100.00
12471;BME280;36499;46.484;13.832;2024-03-08T07:48:04;93027.13;;;0.80;100.00
12471;BME280;36499;46.484;13.832;2024-03-08T07:50:36;93031.00;;;0.75;100.00
12471;BME280;36499;46.484;13.832;2024-03-08T07:53:03;93039.72;;;0.72;100.00
12471;BME280;36499;46.484;13.832;2024-03-08T07:55:32;93027.94;;;0.81;100.00
12471;BME280;36499;46.484;13.832;2024-03-08T07:57:59;93023.06;;;0.78;100.00
12471;BME280;36499;46.484;13.832;2024-03-08T08:00:26;93023.31;;;0.96;100.00
12471;BME280;36499;46.484;13.832;2024-03-08T08:02:53;93024.19;;;0.85;100.00
12471;BME280;36499;46.484;13.832;2024-03-08T08:05:20;93027.22;;;1.00;100.00
12471;BME280;36499;46.484;13.832;2024-03-08T08:07:48;93030.06;;;0.97;100.00
12471;BME280;36499;46.484;13.832;2024-03-08T08:10:16;93033.13;;;0.91;100.00
12471;BME280;36499;46.484;13.832;2024-03-08T08:12:44;93035.41;;;0.94;100.00
12471;BME280;36499;46.484;13.832;2024-03-08T08:15:11;93035.25;;;1.16;100.00
12471;BME280;36499;46.484;13.832;2024-03-08T08:17:40;93034.63;;;1.33;100.00
12471;BME280;36499;46.484;13.832;2024-03-08T08:20:08;93032.63;;;1.27;100.00
12471;BME280;36499;46.484;13.832;2024-03-08T08:22:37;93035.84;;;1.29;100.00
12471;BME280;36499;46.484;13.832;2024-03-08T08:25:06;93035.56;;;1.22;100.00
12471;BME280;36499;46.484;13.832;2024-03-08T08:27:33;93042.59;;;1.30;100.00
12471;BME280;36499;46.484;13.832;2024-03-08T08:30:02;93041.75;;;1.20;100.00
12471;BME280;36499;46.484;13.832;2024-03-08T08:32:33;93041.75;;;1.20;100.00
12471;BME280;36499;46.484;13.832;2024-03-08T08:35:00;93044.84;;;1.23;100.00
12471;BME280;36499;46.484;13.832;2024-03-08T08:37:27;93040.69;;;1.22;100.00
12471;BME280;36499;46.484;13.832;2024-03-08T08:39:55;93038.81;;;1.25;100.00
12471;BME280;36499;46.484;13.832;2024-03-08T08:42:23;93040.69;;;1.32;100.00
12471;BME280;36499;46.484;13.832;2024-03-08T08:44:51;93037.06;;;1.25;100.00
12471;BME280;36499;46.484;13.832;2024-03-08T08:47:18;93037.69;;;1.17;100.00
12471;BME280;36499;46.484;13.832;2024-03-08T08:49:45;93046.22;;;1.28;100.00
12471;BME280;36499;46.484;13.832;2024-03-08T08:52:12;93033.81;;;1.33;100.00
12471;BME280;36499;46.484;13.832;2024-03-08T08:54:41;93034.38;;;1.27;100.00
12471;BME280;36499;46.484;13.832;2024-03-08T08:57:07;93034.38;;;1.27;100.00
12471;BME280;36499;46.484;13.832;2024-03-08T08:59:36;93036.25;;;1.34;100.00
12471;BME280;36499;46.484;13.832;2024-03-08T09:02:05;93038.56;;;1.37;100.00
12471;BME280;36499;46.484;13.832;2024-03-08T09:04:32;93034.78;;;1.32;100.00
12471;BME280;36499;46.484;13.832;2024-03-08T09:06:59;93037.75;;;1.37;100.00
12471;BME280;36499;46.484;13.832;2024-03-08T09:09:27;93045.19;;;1.40;100.00
12471;BME280;36499;46.484;13.832;2024-03-08T09:11:55;93047.69;;;1.61;100.00
12471;BME280;36499;46.484;13.832;2024-03-08T09:14:21;93043.38;;;1.61;100.00
12471;BME280;36499;46.484;13.832;2024-03-08T09:16:50;93042.16;;;1.55;100.00
12471;BME280;36499;46.484;13.832;2024-03-08T09:19:16;93034.72;;;1.52;100.00
12471;BME280;36499;46.484;13.832;2024-03-08T09:21:45;93035.16;;;1.58;100.00
12471;BME280;36499;46.484;13.832;2024-03-08T09:24:12;93036.09;;;1.56;100.00
12471;BME280;36499;46.484;13.832;2024-03-08T09:26:39;93030.28;;;1.54;100.00
12471;BME280;36499;46.484;13.832;2024-03-08T09:29:07;93034.06;;;1.60;100.00
12471;BME280;36499;46.484;13.832;2024-03-08T09:31:36;93026.91;;;1.54;100.00
12471;BME280;36499;46.484;13.832;2024-03-08T09:34:04;93023.00;;;1.50;100.00
12471;BME280;36499;46.484;13.832;2024-03-08T09:36:33;93028.41;;;1.56;100.00
12471;BME280;36499;46.484;13.832;2024-03-08T09:39:00;93023.41;;;1.55;100.00
12471;BME280;36499;46.484;13.832;2024-03-08T09:41:27;93015.81;;;1.44;100.00
12471;BME280;36499;46.484;13.832;2024-03-08T09:43:56;93024.91;;;1.58;100.00
12471;BME280;36499;46.484;13.832;2024-03-08T09:46:25;93030.56;;;1.61;100.00
12471;BME280;36499;46.484;13.832;2024-03-08T09:48:52;93020.59;;;1.68;100.00
12471;BME280;36499;46.484;13.832;2024-03-08T09:51:21;93021.41;;;1.68;100.00
12471;BME280;36499;46.484;13.832;2024-03-08T09:53:51;93031.38;;;1.71;100.00
12471;BME280;36499;46.484;13.832;2024-03-08T09:56:19;93027.75;;;1.74;100.00
12471;BME280;36499;46.484;13.832;2024-03-08T09:58:46;93028.31;;;1.77;100.00
12471;BME280;36499;46.484;13.832;2024-03-08T10:01:40;93026.56;;;1.78;100.00
12471;BME280;36499;46.484;13.832;2024-03-08T10:04:07;93032.09;;;1.83;100.00
12471;BME280;36499;46.484;13.832;2024-03-08T10:06:37;93032.09;;;1.83;100.00
12471;BME280;36499;46.484;13.832;2024-03-08T10:09:04;93028.28;;;1.68;100.00
12471;BME280;36499;46.484;13.832;2024-03-08T10:11:33;93035.72;;;1.80;100.00
12471;BME280;36499;46.484;13.832;2024-03-08T10:14:00;93038.72;;;1.85;100.00
12471;BME280;36499;46.484;13.832;2024-03-08T10:16:28;93034.25;;;1.78;100.00
12471;BME280;36499;46.484;13.832;2024-03-08T10:18:56;93032.53;;;1.88;100.00
12471;BME280;36499;46.484;13.832;2024-03-08T10:21:23;93030.09;;;1.86;100.00
12471;BME280;36499;46.484;13.832;2024-03-08T10:23:52;93035.25;;;1.96;100.00
12471;BME280;36499;46.484;13.832;2024-03-08T10:26:19;93024.72;;;1.99;100.00
12471;BME280;36499;46.484;13.832;2024-03-08T10:28:48;93029.28;;;1.86;100.00
12471;BME280;36499;46.484;13.832;2024-03-08T10:31:15;93030.38;;;1.93;100.00
12471;BME280;36499;46.484;13.832;2024-03-08T10:33:42;93024.44;;;2.02;100.00
12471;BME280;36499;46.484;13.832;2024-03-08T10:36:10;93023.63;;;2.02;100.00
12471;BME280;36499;46.484;13.832;2024-03-08T10:38:39;93021.06;;;2.11;100.00
12471;BME280;36499;46.484;13.832;2024-03-08T10:41:09;93018.38;;;2.03;100.00
12471;BME280;36499;46.484;13.832;2024-03-08T10:43:49;93022.28;;;1.98;100.00
12471;BME280;36499;46.484;13.832;2024-03-08T10:46:25;93017.69;;;2.01;100.00
12471;BME280;36499;46.484;13.832;2024-03-08T10:48:58;93023.09;;;1.98;100.00
12471;BME280;36499;46.484;13.832;2024-03-08T10:51:29;93020.13;;;2.03;100.00
12471;BME280;36499;46.484;13.832;2024-03-08T10:53:57;93022.81;;;2.01;100.00
12471;BME280;36499;46.484;13.832;2024-03-08T10:56:26;93023.63;;;1.92;100.00
12471;BME280;36499;46.484;13.832;2024-03-08T10:58:54;93017.16;;;1.88;100.00
12471;BME280;36499;46.484;13.832;2024-03-08T11:01:21;93009.63;;;1.96;100.00
12471;BME280;36499;46.484;13.832;2024-03-08T11:03:49;93019.31;;;2.02;100.00
12471;BME280;36499;46.484;13.832;2024-03-08T11:06:22;93016.09;;;2.10;100.00
12471;BME280;36499;46.484;13.832;2024-03-08T11:08:50;93027.16;;;2.01;100.00
12471;BME280;36499;46.484;13.832;2024-03-08T11:11:26;93029.97;;;2.07;100.00
12471;BME280;36499;46.484;13.832;2024-03-08T11:14:00;93019.84;;;2.06;100.00
12471;BME280;36499;46.484;13.832;2024-03-08T11:16:38;93014.84;;;2.04;100.00
12471;BME280;36499;46.484;13.832;2024-03-08T11:19:24;93018.94;;;2.16;100.00
12471;BME280;36499;46.484;13.832;2024-03-08T11:21:59;93028.47;;;2.05;100.00
12471;BME280;36499;46.484;13.832;2024-03-08T11:24:26;93029.56;;;2.02;100.00
12471;BME280;36499;46.484;13.832;2024-03-08T11:26:58;93025.91;;;2.05;100.00
12471;BME280;36499;46.484;13.832;2024-03-08T11:29:38;93028.50;;;2.14;100.00
12471;BME280;36499;46.484;13.832;2024-03-08T11:32:09;93019.75;;;2.17;100.00
12471;BME280;36499;46.484;13.832;2024-03-08T11:34:38;93016.50;;;2.15;100.00
12471;BME280;36499;46.484;13.832;2024-03-08T11:37:11;93002.31;;;2.01;100.00
12471;BME280;36499;46.484;13.832;2024-03-08T11:39:39;93012.19;;;1.96;100.00
12471;BME280;36499;46.484;13.832;2024-03-08T11:42:08;93004.22;;;1.99;100.00
12471;BME280;36499;46.484;13.832;2024-03-08T11:44:36;92993.81;;;1.91;100.00
12471;BME280;36499;46.484;13.832;2024-03-08T11:47:08;92997.59;;;1.97;100.00
12471;BME280;36499;46.484;13.832;2024-03-08T11:49:36;92993.69;;;1.93;100.00
12471;BME280;36499;46.484;13.832;2024-03-08T11:52:03;92991.53;;;1.88;100.00
12471;BME280;36499;46.484;13.832;2024-03-08T11:54:30;93000.31;;;1.95;100.00
12471;BME280;36499;46.484;13.832;2024-03-08T11:56:57;92993.97;;;1.99;100.00
12471;BME280;36499;46.484;13.832;2024-03-08T11:59:28;92993.03;;;2.19;100.00
12471;BME280;36499;46.484;13.832;2024-03-08T12:02:01;92983.59;;;2.20;100.00
12471;BME280;36499;46.484;13.832;2024-03-08T12:04:29;92988.56;;;2.21;100.00
12471;BME280;36499;46.484;13.832;2024-03-08T12:06:59;92986.69;;;2.33;100.00
12471;BME280;36499;46.484;13.832;2024-03-08T12:09:26;92986.94;;;2.20;100.00
12471;BME280;36499;46.484;13.832;2024-03-08T12:11:53;92974.69;;;2.24;100.00
12471;BME280;36499;46.484;13.832;2024-03-08T12:14:20;92971.97;;;2.16;100.00
12471;BME280;36499;46.484;13.832;2024-03-08T12:16:50;92972.53;;;2.29;100.00
12471;BME280;36499;46.484;13.832;2024-03-08T12:19:17;92963.19;;;2.38;100.00
12471;BME280;36499;46.484;13.832;2024-03-08T12:21:44;92963.84;;;2.40;100.00
12471;BME280;36499;46.484;13.832;2024-03-08T12:24:15;92969.50;;;2.53;100.00
12471;BME280;36499;46.484;13.832;2024-03-08T12:26:45;92969.13;;;2.48;100.00
12471;BME280;36499;46.484;13.832;2024-03-08T12:29:21;92969.38;;;2.54;100.00
12471;BME280;36499;46.484;13.832;2024-03-08T12:31:52;92963.72;;;2.61;100.00
12471;BME280;36499;46.484;13.832;2024-03-08T12:34:19;92967.09;;;2.61;100.00
12471;BME280;36499;46.484;13.832;2024-03-08T12:36:47;92966.00;;;2.54;100.00
12471;BME280;36499;46.484;13.832;2024-03-08T12:39:16;92962.34;;;2.56;100.00
12471;BME280;36499;46.484;13.832;2024-03-08T12:41:43;92954.94;;;2.63;100.00
12471;BME280;36499;46.484;13.832;2024-03-08T12:44:12;92948.59;;;2.57;100.00
12471;BME280;36499;46.484;13.832;2024-03-08T12:46:39;92964.25;;;2.54;100.00
12471;BME280;36499;46.484;13.832;2024-03-08T12:49:10;92952.25;;;2.55;100.00
12471;BME280;36499;46.484;13.832;2024-03-08T12:51:38;92946.44;;;2.53;100.00
12471;BME280;36499;46.484;13.832;2024-03-08T12:54:05;92952.38;;;2.53;100.00
12471;BME280;36499;46.484;13.832;2024-03-08T12:56:34;92950.34;;;2.47;100.00